De Xin Hai — BQBP — position and weather

sailwx.info

Track history (hours):
 
Tides and Currents Weather Stations Pressure Air Temp Water Temp Dewpoint Dewpoint Depression Visibility Wind Speed Wind Dir Waves Ship Positions

De Xin Hai

Last reported at 2016-May-05 06:33 UTC. Time now 2016-May-05 06:39 UTC.
Position N 38°48' W 010°07'.

Length 225 m; draft 6.9 m.

Type: Cargo ship. MMSI: 367344200.

Date/timePositionNaut miles runAvg speedWind from/ knotsBaromVisibWave heightAir tempDewpointWater temp
2016-May-05 06:33N 38°48' W 010°07'1311.3
2016-May-05 05:23N 39°01' W 010°07'  
2016-May-02 08:28N 49°42' W 003°52'1211.0
2016-May-02 07:25N 49°48' W 003°37'910.8
2016-May-02 06:33N 49°53' W 003°25'1010.3
2016-May-02 05:33N 49°57' W 003°10'10 9.9
2016-May-02 04:33N 49°59' W 002°55'10 9.3
2016-May-02 03:29N 50°01' W 002°40'7710.6
2016-May-01 20:16N 50°22' W 000°44'1011.9
2016-May-01 19:24N 50°25' W 000°28'1011.3
2016-May-01 18:33N 50°28' W 000°14'1110.6
2016-May-01 17:33N 50°31' E 000°02'1010.0
2016-May-01 16:33N 50°33' E 000°17'14 9.6
2016-May-01 15:04N 50°39' E 000°38'2911.1
2016-May-01 12:27N 50°56' E 001°15'1112.1
2016-May-01 11:33N 51°04' E 001°26'1111.1
2016-May-01 10:33N 51°11' E 001°40'1010.5
2016-May-01 09:33N 51°20' E 001°50'1010.0
2016-May-01 08:33N 51°29' E 001°58'10 9.8
2016-May-01 07:33N 51°36' E 002°09'469 9.7
2016-Apr-29 07:19N 57°49' E 010°21'810.7
2016-Apr-29 06:33N 57°49' E 010°37'9 9.3
2016-Apr-29 05:33N 57°45' E 010°53'10 9.8
2016-Apr-29 04:33N 57°38' E 011°05'1110.8
2016-Apr-29 03:33N 57°31' E 011°20'1110.5
2016-Apr-29 02:33N 57°22' E 011°30'1110.8
2016-Apr-29 01:33N 57°11' E 011°37'1110.7
2016-Apr-29 00:33N 57°01' E 011°43'1010.3
2016-Apr-28 23:33N 56°52' E 011°49'10 9.7
2016-Apr-28 22:33N 56°42' E 011°51'1010.3
2016-Apr-28 21:33N 56°33' E 011°41'78 9.7
2016-Apr-28 13:33N 55°18' E 011°03'9 9.0
2016-Apr-28 12:33N 55°09' E 011°00'1110.9
2016-Apr-28 11:33N 54°58' E 010°58'1111.0
2016-Apr-28 10:33N 54°48' E 010°50'9 8.6
2016-Apr-28 09:33N 54°40' E 010°49'1010.1
2016-Apr-28 08:33N 54°36' E 011°05'1110.8
2016-Apr-28 07:33N 54°32' E 011°23'1111.0
2016-Apr-28 06:33N 54°28' E 011°41'1110.8
2016-Apr-28 05:33N 54°27' E 011°59'9 9.1
2016-Apr-28 04:33N 54°30' E 012°13'9 8.9
2016-Apr-28 03:33N 54°38' E 012°21'9 9.3
2016-Apr-28 02:33N 54°43' E 012°35'4110.1
2016-Apr-27 22:29N 54°59' E 013°40'1010.4
2016-Apr-27 21:33N 55°03' E 013°56'1010.0
2016-Apr-27 20:33N 55°09' E 014°10'1010.4
2016-Apr-27 19:33N 55°16' E 014°22'1110.6
2016-Apr-27 18:33N 55°24' E 014°35'1010.1
2016-Apr-27 17:33N 55°30' E 014°49'1010.4
2016-Apr-27 16:33N 55°35' E 015°05'1010.4
2016-Apr-27 15:33N 55°39' E 015°22'1110.2
2016-Apr-27 14:31N 55°41' E 015°41'  
Track history (hours):
 
Tides and Currents Weather Stations Pressure Air Temp Water Temp Dewpoint Dewpoint Depression Visibility Wind Speed Wind Dir Waves Ship Positions

De Xin Hai

Last reported at 2016-May-05 06:33 UTC. Time now 2016-May-05 06:39 UTC.
Position N 38°48' W 010°07'.

Length 225 m; draft 6.9 m.

Type: Cargo ship. MMSI: 367344200.

Date/timePositionNaut miles runAvg speedWind from/ knotsBaromVisibWave heightAir tempDewpointWater temp
2016-May-05 06:33N 38°48' W 010°07'1311.3
2016-May-05 05:23N 39°01' W 010°07'  
2016-May-02 08:28N 49°42' W 003°52'1211.0
2016-May-02 07:25N 49°48' W 003°37'910.8
2016-May-02 06:33N 49°53' W 003°25'1010.3
2016-May-02 05:33N 49°57' W 003°10'10 9.9
2016-May-02 04:33N 49°59' W 002°55'10 9.3
2016-May-02 03:29N 50°01' W 002°40'7710.6
2016-May-01 20:16N 50°22' W 000°44'1011.9
2016-May-01 19:24N 50°25' W 000°28'1011.3
2016-May-01 18:33N 50°28' W 000°14'1110.6
2016-May-01 17:33N 50°31' E 000°02'1010.0
2016-May-01 16:33N 50°33' E 000°17'14 9.6
2016-May-01 15:04N 50°39' E 000°38'2911.1
2016-May-01 12:27N 50°56' E 001°15'1112.1
2016-May-01 11:33N 51°04' E 001°26'1111.1
2016-May-01 10:33N 51°11' E 001°40'1010.5
2016-May-01 09:33N 51°20' E 001°50'1010.0
2016-May-01 08:33N 51°29' E 001°58'10 9.8
2016-May-01 07:33N 51°36' E 002°09'469 9.7
2016-Apr-29 07:19N 57°49' E 010°21'810.7
2016-Apr-29 06:33N 57°49' E 010°37'9 9.3
2016-Apr-29 05:33N 57°45' E 010°53'10 9.8
2016-Apr-29 04:33N 57°38' E 011°05'1110.8
2016-Apr-29 03:33N 57°31' E 011°20'1110.5
2016-Apr-29 02:33N 57°22' E 011°30'1110.8
2016-Apr-29 01:33N 57°11' E 011°37'1110.7
2016-Apr-29 00:33N 57°01' E 011°43'1010.3
2016-Apr-28 23:33N 56°52' E 011°49'10 9.7
2016-Apr-28 22:33N 56°42' E 011°51'1010.3
2016-Apr-28 21:33N 56°33' E 011°41'78 9.7
2016-Apr-28 13:33N 55°18' E 011°03'9 9.0
2016-Apr-28 12:33N 55°09' E 011°00'1110.9
2016-Apr-28 11:33N 54°58' E 010°58'1111.0
2016-Apr-28 10:33N 54°48' E 010°50'9 8.6
2016-Apr-28 09:33N 54°40' E 010°49'1010.1
2016-Apr-28 08:33N 54°36' E 011°05'1110.8
2016-Apr-28 07:33N 54°32' E 011°23'1111.0
2016-Apr-28 06:33N 54°28' E 011°41'1110.8
2016-Apr-28 05:33N 54°27' E 011°59'9 9.1
2016-Apr-28 04:33N 54°30' E 012°13'9 8.9
2016-Apr-28 03:33N 54°38' E 012°21'9 9.3
2016-Apr-28 02:33N 54°43' E 012°35'4110.1
2016-Apr-27 22:29N 54°59' E 013°40'1010.4
2016-Apr-27 21:33N 55°03' E 013°56'1010.0
2016-Apr-27 20:33N 55°09' E 014°10'1010.4
2016-Apr-27 19:33N 55°16' E 014°22'1110.6
2016-Apr-27 18:33N 55°24' E 014°35'1010.1
2016-Apr-27 17:33N 55°30' E 014°49'1010.4
2016-Apr-27 16:33N 55°35' E 015°05'1010.4
2016-Apr-27 15:33N 55°39' E 015°22'1110.2
2016-Apr-27 14:31N 55°41' E 015°41'  

Dump ship's entire track history